Time;durP1;ratioP1;P1;durP2;ratioP2;P2;SDS_P1;SDS_P2;PMS_P1;PMS_P2;Temp;Humidity;BMP_temperature;BMP_pressure;BME280_temperature;BME280_humidity;BME280_pressure;Samples;Min_cycle;Max_cycle;Signal;HPM_P1;HPM_P2
2022/07/08 00:02:11;;;;;;;7.07;2.10;;;16.00;99.90;;;;;;5042043;28;20458;-65
2022/07/08 00:04:37;;;;;;;5.55;1.80;;;16.00;99.90;;;;;;5041163;28;20026;-65
2022/07/08 00:07:03;;;;;;;11.05;1.65;;;16.00;99.90;;;;;;5044243;28;20420;-65
2022/07/08 00:09:29;;;;;;;10.52;1.80;;;16.00;99.90;;;;;;5041971;28;20024;-65
2022/07/08 00:11:55;;;;;;;10.70;2.15;;;16.10;99.90;;;;;;5042432;28;20028;-65
2022/07/08 00:14:21;;;;;;;8.18;1.45;;;15.90;99.90;;;;;;5044618;28;20500;-66
2022/07/08 00:16:47;;;;;;;10.85;1.80;;;15.80;99.90;;;;;;5042139;28;20028;-65
2022/07/08 00:19:18;;;;;;;7.63;1.70;;;15.70;99.90;;;;;;5040748;28;20029;-65
2022/07/08 00:21:46;;;;;;;8.80;1.75;;;15.60;99.90;;;;;;5036757;28;20017;-65
2022/07/08 00:24:13;;;;;;;5.00;1.50;;;15.70;99.90;;;;;;5043944;28;20036;-64
2022/07/08 00:26:39;;;;;;;9.60;1.95;;;15.70;99.90;;;;;;5037559;28;20487;-65
2022/07/08 00:29:05;;;;;;;7.15;1.65;;;15.70;99.90;;;;;;5042637;28;20130;-65
2022/07/08 00:31:34;;;;;;;9.27;2.03;;;15.60;99.90;;;;;;5041706;28;20489;-65
2022/07/08 00:34:00;;;;;;;9.20;2.00;;;15.60;99.90;;;;;;5042436;28;20029;-65
2022/07/08 00:36:29;;;;;;;9.35;1.98;;;15.80;99.90;;;;;;5042838;28;20025;-65
2022/07/08 00:38:55;;;;;;;10.30;2.00;;;15.80;99.90;;;;;;5039416;28;20036;-64
2022/07/08 00:41:21;;;;;;;7.63;2.08;;;16.00;99.90;;;;;;5040671;28;20642;-65
2022/07/08 00:43:47;;;;;;;9.48;1.90;;;15.90;99.90;;;;;;5045974;28;20108;-65
2022/07/08 00:46:14;;;;;;;11.45;2.08;;;16.00;99.90;;;;;;5049902;28;20040;-65
2022/07/08 00:48:40;;;;;;;10.10;2.03;;;16.10;99.90;;;;;;5036560;28;20121;-65
2022/07/08 00:51:09;;;;;;;9.98;2.28;;;16.00;99.90;;;;;;5034965;28;20025;-65
2022/07/08 00:53:38;;;;;;;9.50;2.00;;;15.80;99.90;;;;;;5038519;28;20183;-64
2022/07/08 00:56:04;;;;;;;7.80;1.70;;;15.90;99.90;;;;;;5039867;28;20031;-65
2022/07/08 00:58:31;;;;;;;8.73;2.47;;;15.90;99.90;;;;;;5041642;28;20044;-66
2022/07/08 01:00:56;;;;;;;7.70;1.92;;;15.80;99.90;;;;;;5044766;28;20473;-65
2022/07/08 01:03:22;;;;;;;9.93;1.95;;;15.70;99.90;;;;;;5038312;28;20029;-65
2022/07/08 01:05:47;;;;;;;8.20;1.98;;;15.90;99.90;;;;;;5045318;28;20389;-65
2022/07/08 01:08:13;;;;;;;8.55;1.95;;;15.90;99.90;;;;;;5038665;28;20032;-65
2022/07/08 01:10:40;;;;;;;11.80;2.10;;;16.10;99.90;;;;;;5038977;28;20056;-64
2022/07/08 01:13:06;;;;;;;9.25;2.28;;;16.20;99.90;;;;;;5054705;28;20328;-65
2022/07/08 01:15:32;;;;;;;8.05;2.03;;;16.10;99.90;;;;;;5053397;28;20033;-65
2022/07/08 01:17:58;;;;;;;9.48;2.00;;;16.00;99.90;;;;;;5047745;28;20053;-65
2022/07/08 01:20:23;;;;;;;9.40;2.13;;;15.90;99.90;;;;;;5040002;28;20435;-65
2022/07/08 01:22:49;;;;;;;8.20;1.88;;;16.00;99.90;;;;;;5038337;28;20100;-65
2022/07/08 01:25:15;;;;;;;9.25;1.65;;;16.10;99.90;;;;;;5047334;28;20121;-65
2022/07/08 01:27:41;;;;;;;11.82;2.17;;;16.20;99.90;;;;;;5041109;28;20032;-65
2022/07/08 01:30:08;;;;;;;6.72;1.75;;;16.20;99.90;;;;;;5054736;28;20013;-65
2022/07/08 01:32:35;;;;;;;8.10;1.77;;;16.20;99.90;;;;;;5046030;28;20035;-65
2022/07/08 01:35:02;;;;;;;8.98;1.90;;;16.10;99.90;;;;;;5044625;28;20543;-65
2022/07/08 01:37:28;;;;;;;9.43;1.83;;;16.30;99.90;;;;;;5043252;28;20036;-64
2022/07/08 01:39:53;;;;;;;6.20;1.60;;;16.10;99.90;;;;;;5046339;28;20087;-65
2022/07/08 01:42:19;;;;;;;9.63;2.33;;;16.00;99.90;;;;;;5045091;28;20437;-65
2022/07/08 01:44:44;;;;;;;8.30;1.95;;;16.10;99.90;;;;;;5044236;28;20032;-65
2022/07/08 01:47:10;;;;;;;6.15;1.65;;;16.00;99.90;;;;;;5053021;28;20422;-66
2022/07/08 01:49:35;;;;;;;9.15;2.00;;;16.10;99.90;;;;;;5034370;28;20017;-65
2022/07/08 01:52:01;;;;;;;6.45;1.67;;;16.00;99.90;;;;;;5042198;28;20063;-65
2022/07/08 01:54:27;;;;;;;13.60;1.98;;;16.10;99.90;;;;;;5031008;28;20033;-65
2022/07/08 01:57:13;;;;;;;7.45;1.90;;;16.00;99.90;;;;;;5034386;28;20021;-64
2022/07/08 01:59:38;;;;;;;10.18;2.13;;;16.10;99.90;;;;;;5045080;28;20396;-65
2022/07/08 02:02:04;;;;;;;8.73;1.73;;;16.00;99.90;;;;;;5045992;28;20035;-65
2022/07/08 02:04:30;;;;;;;7.32;1.75;;;15.90;99.90;;;;;;5037904;28;20519;-65
2022/07/08 02:06:55;;;;;;;8.30;1.90;;;16.10;99.90;;;;;;5039150;28;20032;-65
2022/07/08 02:09:21;;;;;;;8.38;1.83;;;16.10;99.90;;;;;;5043958;28;20033;-65
2022/07/08 02:14:32;;;;;;;7.85;2.00;;;16.00;99.90;;;;;;5043955;28;20129;-65
2022/07/08 02:16:58;;;;;;;10.60;2.03;;;15.90;99.90;;;;;;5041231;28;20058;-65
2022/07/08 02:19:23;;;;;;;11.30;2.17;;;15.90;99.90;;;;;;5040261;28;20107;-65
2022/07/08 02:21:49;;;;;;;11.00;2.08;;;15.90;99.90;;;;;;5043818;28;20017;-65
2022/07/08 02:24:15;;;;;;;8.07;1.77;;;15.80;99.90;;;;;;5036030;28;20434;-65
2022/07/08 02:26:41;;;;;;;6.63;1.83;;;15.90;99.90;;;;;;5044764;28;20021;-65
2022/07/08 02:29:06;;;;;;;10.80;2.42;;;15.90;99.90;;;;;;5037150;28;20026;-65
2022/07/08 02:31:32;;;;;;;7.63;1.95;;;15.80;99.90;;;;;;5045581;28;20416;-65
2022/07/08 02:33:58;;;;;;;9.00;2.00;;;15.90;99.90;;;;;;5039201;28;20040;-65
2022/07/08 02:36:24;;;;;;;9.35;1.85;;;15.90;99.90;;;;;;5037554;28;20029;-65
2022/07/08 02:38:49;;;;;;;10.27;2.10;;;15.80;99.90;;;;;;5037208;28;20023;-65
2022/07/08 02:41:15;;;;;;;9.45;2.10;;;15.80;99.90;;;;;;5045095;28;20104;-65
2022/07/08 02:43:40;;;;;;;9.57;2.70;;;15.80;99.90;;;;;;5035699;28;20052;-65
2022/07/08 02:46:06;;;;;;;9.98;1.95;;;15.80;99.90;;;;;;5043746;28;20025;-65
2022/07/08 02:48:31;;;;;;;7.20;2.10;;;15.80;99.90;;;;;;5042999;28;20021;-65
2022/07/08 02:50:57;;;;;;;10.60;2.60;;;15.70;99.90;;;;;;5039712;28;20610;-65
2022/07/08 02:53:23;;;;;;;7.65;1.77;;;15.70;99.90;;;;;;5039164;28;20029;-65
2022/07/08 02:55:49;;;;;;;18.33;2.67;;;15.70;99.90;;;;;;5027527;28;20053;-65
2022/07/08 02:58:14;;;;;;;11.23;2.50;;;15.60;99.90;;;;;;5037305;28;20522;-65
2022/07/08 03:00:40;;;;;;;13.73;2.17;;;15.60;99.90;;;;;;5041868;28;20667;-65
2022/07/08 03:03:05;;;;;;;9.07;2.35;;;15.50;99.90;;;;;;5044044;28;20095;-65
2022/07/08 03:05:31;;;;;;;11.45;2.28;;;15.60;99.90;;;;;;5037967;28;20040;-65
2022/07/08 03:07:57;;;;;;;12.10;2.45;;;15.70;99.90;;;;;;5035473;28;20017;-64
2022/07/08 03:10:22;;;;;;;9.38;2.05;;;15.40;99.90;;;;;;5040192;28;20043;-65
2022/07/08 03:12:48;;;;;;;12.88;2.35;;;15.40;99.90;;;;;;5036802;28;20030;-65
2022/07/08 03:15:13;;;;;;;10.35;1.90;;;15.60;99.90;;;;;;5041431;28;20026;-65
2022/07/08 03:17:39;;;;;;;7.57;1.73;;;15.50;99.90;;;;;;5036023;28;20036;-65
2022/07/08 03:20:05;;;;;;;10.27;2.60;;;15.70;99.90;;;;;;5054442;28;20582;-64
2022/07/08 03:22:32;;;;;;;11.00;2.42;;;15.60;99.90;;;;;;5036767;28;20138;-65
2022/07/08 03:24:58;;;;;;;10.10;2.17;;;15.60;99.90;;;;;;5040414;28;20017;-65
2022/07/08 03:27:23;;;;;;;8.90;2.75;;;15.60;99.90;;;;;;5048553;28;20512;-65
2022/07/08 03:29:49;;;;;;;10.77;2.38;;;15.60;99.90;;;;;;5040278;28;20025;-65
2022/07/08 03:32:15;;;;;;;8.93;2.20;;;15.40;99.90;;;;;;5042920;28;20307;-66
2022/07/08 03:34:40;;;;;;;8.70;2.33;;;15.50;99.90;;;;;;5043525;28;20019;-66
2022/07/08 03:37:06;;;;;;;10.20;2.40;;;15.40;99.90;;;;;;5042129;28;20648;-65
2022/07/08 03:39:31;;;;;;;9.77;2.25;;;15.40;99.90;;;;;;5043547;28;20025;-65
2022/07/08 03:41:57;;;;;;;8.50;2.20;;;15.50;99.90;;;;;;5036126;28;20037;-65
2022/07/08 03:44:22;;;;;;;8.30;2.00;;;15.30;99.90;;;;;;5045653;28;20021;-65
2022/07/08 03:46:48;;;;;;;9.02;1.98;;;15.10;99.90;;;;;;5040623;28;20043;-65
2022/07/08 03:49:13;;;;;;;10.55;2.35;;;15.20;99.90;;;;;;5040472;28;20290;-65
2022/07/08 03:51:39;;;;;;;11.18;2.22;;;15.10;99.90;;;;;;5041062;28;20028;-66
2022/07/08 03:54:05;;;;;;;12.75;2.33;;;15.20;99.90;;;;;;5056542;28;20039;-65
2022/07/08 03:56:30;;;;;;;8.98;1.90;;;15.30;99.90;;;;;;5040890;28;20434;-65
2022/07/08 03:58:56;;;;;;;7.13;2.00;;;15.40;99.90;;;;;;5038709;28;20020;-65
2022/07/08 04:01:21;;;;;;;12.32;2.15;;;15.30;99.90;;;;;;5059379;28;20025;-65
2022/07/08 04:03:47;;;;;;;11.23;2.33;;;15.40;99.90;;;;;;5042885;28;20027;-65
2022/07/08 04:06:12;;;;;;;6.75;1.73;;;15.20;99.90;;;;;;5037293;28;20028;-65
2022/07/08 04:08:38;;;;;;;9.65;2.30;;;15.10;99.90;;;;;;5045048;28;20516;-65
2022/07/08 04:11:04;;;;;;;9.82;2.03;;;15.20;99.90;;;;;;5041806;28;20396;-65
2022/07/08 04:13:30;;;;;;;11.02;2.13;;;15.10;99.90;;;;;;5040124;28;20279;-65
2022/07/08 04:15:56;;;;;;;11.07;2.10;;;15.20;99.90;;;;;;5043269;28;20120;-65
2022/07/08 04:18:23;;;;;;;8.60;2.65;;;15.40;99.90;;;;;;5040158;28;20059;-65
2022/07/08 04:20:48;;;;;;;7.40;2.28;;;15.30;99.90;;;;;;5046312;28;20021;-64
2022/07/08 04:23:14;;;;;;;8.95;1.95;;;15.20;99.90;;;;;;5039108;28;20025;-65
2022/07/08 04:25:39;;;;;;;11.25;2.17;;;15.20;99.90;;;;;;5044696;28;20075;-64
2022/07/08 04:28:05;;;;;;;16.70;2.25;;;15.20;99.90;;;;;;5045900;28;20107;-65
2022/07/08 04:30:31;;;;;;;9.50;2.60;;;15.30;99.90;;;;;;5045474;28;20048;-65
2022/07/08 04:32:56;;;;;;;10.13;2.10;;;15.20;99.90;;;;;;5036639;28;20124;-65
2022/07/08 04:35:22;;;;;;;7.72;2.08;;;15.20;99.90;;;;;;5040525;28;20025;-65
2022/07/08 04:37:48;;;;;;;13.63;2.55;;;15.20;99.90;;;;;;5042357;28;20433;-65
2022/07/08 04:40:15;;;;;;;6.95;1.92;;;15.30;99.90;;;;;;5039350;28;20083;-65
2022/07/08 04:42:41;;;;;;;9.77;2.10;;;15.40;99.90;;;;;;5059579;28;20021;-65
2022/07/08 04:45:07;;;;;;;9.40;2.00;;;15.50;99.90;;;;;;5046169;28;20020;-65
2022/07/08 04:47:33;;;;;;;7.95;1.98;;;15.60;99.90;;;;;;5040967;28;20070;-65
2022/07/08 04:49:58;;;;;;;9.75;1.95;;;15.70;99.90;;;;;;5043499;28;20020;-65
2022/07/08 04:52:24;;;;;;;8.02;1.88;;;15.40;99.90;;;;;;5044149;28;20021;-65
2022/07/08 04:54:49;;;;;;;10.32;2.22;;;15.20;99.90;;;;;;5038593;28;20068;-66
2022/07/08 04:57:15;;;;;;;12.27;2.45;;;15.20;99.90;;;;;;5038531;28;20032;-65
2022/07/08 04:59:41;;;;;;;9.20;2.15;;;15.10;99.90;;;;;;5041879;28;20053;-65
2022/07/08 05:02:07;;;;;;;11.48;2.45;;;15.30;99.90;;;;;;5046426;28;20082;-65
2022/07/08 05:04:33;;;;;;;8.73;2.72;;;15.30;99.90;;;;;;5040037;28;20025;-65
2022/07/08 05:06:58;;;;;;;7.40;2.03;;;15.30;99.90;;;;;;5051474;28;20673;-65
2022/07/08 05:09:24;;;;;;;8.32;2.15;;;15.50;99.90;;;;;;5038242;28;20030;-65
2022/07/08 05:11:50;;;;;;;11.13;2.63;;;15.60;99.90;;;;;;5044228;28;20069;-65
2022/07/08 05:14:15;;;;;;;13.40;2.40;;;15.70;99.90;;;;;;5042384;28;20078;-65
2022/07/08 05:16:42;;;;;;;11.70;2.35;;;15.80;99.90;;;;;;5046936;28;20025;-65
2022/07/08 05:19:08;;;;;;;8.00;2.10;;;15.80;99.90;;;;;;5040769;28;20035;-65
2022/07/08 05:21:36;;;;;;;14.23;2.88;;;15.80;99.90;;;;;;5041533;28;20105;-66
2022/07/08 05:24:03;;;;;;;7.65;2.20;;;15.80;99.90;;;;;;5039676;28;20090;-65
2022/07/08 05:26:29;;;;;;;7.93;2.00;;;15.80;99.90;;;;;;5040680;28;20029;-65
2022/07/08 05:28:54;;;;;;;7.57;2.20;;;15.80;99.90;;;;;;5038640;28;20030;-65
2022/07/08 05:31:20;;;;;;;13.40;2.75;;;15.90;99.90;;;;;;5038741;28;20036;-66
2022/07/08 05:33:45;;;;;;;10.07;2.33;;;16.30;99.90;;;;;;5044512;28;20028;-65
2022/07/08 05:36:11;;;;;;;9.95;2.15;;;15.90;99.90;;;;;;5043057;28;20297;-65
2022/07/08 05:38:37;;;;;;;14.75;2.20;;;15.90;99.90;;;;;;5035723;28;20024;-65
2022/07/08 05:41:02;;;;;;;10.77;2.53;;;15.80;99.90;;;;;;5038430;28;20017;-65
2022/07/08 05:43:28;;;;;;;11.68;2.13;;;15.90;99.90;;;;;;5043650;28;20029;-65
2022/07/08 05:45:53;;;;;;;14.27;2.67;;;15.90;99.90;;;;;;5039934;28;20028;-65
2022/07/08 05:48:19;;;;;;;7.53;2.10;;;16.10;99.90;;;;;;5035752;28;20025;-65
2022/07/08 05:50:45;;;;;;;11.95;2.17;;;15.90;99.90;;;;;;5042110;28;20366;-65
2022/07/08 05:53:11;;;;;;;9.05;1.80;;;15.90;99.90;;;;;;5049228;28;20028;-65
2022/07/08 05:55:36;;;;;;;12.93;2.05;;;15.80;99.90;;;;;;5045232;28;20016;-65
2022/07/08 05:58:02;;;;;;;8.98;1.65;;;16.00;99.90;;;;;;5036845;28;20677;-65
2022/07/08 06:00:28;;;;;;;11.45;2.28;;;16.20;99.90;;;;;;5032938;28;20431;-65
2022/07/08 06:02:53;;;;;;;10.23;1.83;;;16.20;99.90;;;;;;5058547;28;20043;-65
2022/07/08 06:05:19;;;;;;;8.38;1.77;;;16.30;99.90;;;;;;5040321;28;20030;-65
2022/07/08 06:07:44;;;;;;;8.27;2.03;;;16.40;99.90;;;;;;5038865;28;20090;-65
2022/07/08 06:10:10;;;;;;;6.80;1.70;;;16.20;99.90;;;;;;5040093;28;20183;-65
2022/07/08 06:12:35;;;;;;;8.82;2.30;;;16.20;99.90;;;;;;5037919;28;20036;-65
2022/07/08 06:15:01;;;;;;;10.32;2.25;;;16.20;99.90;;;;;;5044913;28;20193;-65
2022/07/08 06:17:26;;;;;;;14.02;2.40;;;16.30;99.90;;;;;;5042684;28;20060;-65
2022/07/08 06:19:52;;;;;;;7.20;1.90;;;16.30;99.90;;;;;;5033937;28;20025;-65
2022/07/08 06:22:17;;;;;;;13.25;2.10;;;16.30;99.90;;;;;;5039538;28;20029;-65
2022/07/08 06:24:43;;;;;;;8.40;1.90;;;16.10;99.90;;;;;;5040068;28;20059;-65
2022/07/08 06:27:09;;;;;;;7.03;1.80;;;16.00;99.90;;;;;;5043675;28;20056;-66
2022/07/08 06:29:34;;;;;;;14.88;2.30;;;16.10;99.90;;;;;;5040532;28;20021;-66
2022/07/08 06:32:00;;;;;;;9.80;2.45;;;16.20;99.90;;;;;;5042094;28;20090;-66
2022/07/08 06:34:26;;;;;;;16.02;2.25;;;16.30;99.90;;;;;;5042668;28;20085;-66
2022/07/08 06:36:51;;;;;;;11.05;2.00;;;16.60;99.90;;;;;;5038935;28;20046;-66
2022/07/08 06:39:17;;;;;;;7.13;1.88;;;16.60;99.90;;;;;;5042247;28;20103;-66
2022/07/08 06:41:42;;;;;;;7.38;1.48;;;16.50;99.90;;;;;;5043805;28;20111;-66
2022/07/08 06:44:08;;;;;;;13.27;1.73;;;16.50;99.90;;;;;;5040600;28;20029;-66
2022/07/08 06:46:33;;;;;;;9.85;1.65;;;16.60;99.90;;;;;;5041900;28;20052;-65
2022/07/08 06:48:59;;;;;;;7.82;1.95;;;16.90;99.90;;;;;;5043550;28;20036;-66
2022/07/08 06:51:24;;;;;;;9.82;2.40;;;17.10;99.90;;;;;;5041340;28;20496;-66
2022/07/08 06:56:34;;;;;;;8.70;1.83;;;17.00;99.90;;;;;;5039609;28;20080;-66
2022/07/08 06:59:00;;;;;;;7.95;1.60;;;17.00;99.90;;;;;;5040218;28;20104;-66
2022/07/08 07:01:25;;;;;;;14.60;2.28;;;16.80;99.90;;;;;;5036808;28;20051;-66
2022/07/08 07:03:51;;;;;;;6.65;1.60;;;16.70;99.90;;;;;;5039901;28;20135;-66
2022/07/08 07:06:16;;;;;;;7.47;1.77;;;16.70;99.90;;;;;;5034800;28;20483;-66
2022/07/08 07:08:42;;;;;;;12.60;1.63;;;16.70;99.90;;;;;;5039032;28;20036;-66
2022/07/08 07:11:08;;;;;;;6.60;1.42;;;16.80;99.90;;;;;;5037069;28;20029;-66
2022/07/08 07:13:33;;;;;;;9.73;2.10;;;16.70;99.90;;;;;;5039313;28;20727;-66
2022/07/08 07:15:59;;;;;;;8.23;1.42;;;16.80;99.90;;;;;;5041410;28;20037;-66
2022/07/08 07:18:25;;;;;;;11.80;1.80;;;17.00;99.90;;;;;;5044283;28;20096;-66
2022/07/08 07:20:51;;;;;;;9.85;2.22;;;17.60;99.90;;;;;;5038490;28;20029;-66
2022/07/08 07:23:17;;;;;;;10.27;1.60;;;17.70;99.90;;;;;;5044554;28;20025;-66
2022/07/08 07:25:42;;;;;;;7.78;1.60;;;17.70;99.90;;;;;;5034559;28;20125;-66
2022/07/08 07:28:08;;;;;;;10.68;2.22;;;17.90;99.90;;;;;;5037017;28;20029;-67
2022/07/08 07:30:33;;;;;;;9.18;1.98;;;17.90;99.90;;;;;;5040754;28;20029;-66
2022/07/08 07:32:59;;;;;;;9.57;2.03;;;17.80;99.90;;;;;;5036694;28;20412;-66
2022/07/08 07:35:24;;;;;;;8.40;1.77;;;17.80;99.90;;;;;;5043559;28;20041;-66
2022/07/08 07:37:50;;;;;;;8.43;1.80;;;17.60;99.90;;;;;;5039019;28;20036;-68
2022/07/08 07:40:15;;;;;;;11.68;2.00;;;17.60;99.90;;;;;;5041868;28;20032;-70
2022/07/08 07:42:41;;;;;;;12.98;2.22;;;17.60;99.90;;;;;;5036043;28;20103;-69
2022/07/08 07:45:07;;;;;;;10.98;2.03;;;17.70;99.90;;;;;;5046104;28;20810;-68
2022/07/08 07:47:33;;;;;;;15.05;2.15;;;17.60;99.90;;;;;;5038721;28;20086;-66
2022/07/08 07:49:59;;;;;;;10.15;1.70;;;17.50;99.90;;;;;;5039663;28;20024;-71
2022/07/08 07:52:24;;;;;;;10.20;2.10;;;17.60;99.90;;;;;;5046931;28;20221;-66
2022/07/08 07:54:50;;;;;;;8.35;1.67;;;17.90;99.90;;;;;;5048156;28;20036;-68
2022/07/08 07:57:15;;;;;;;8.05;1.70;;;17.90;99.90;;;;;;5046333;28;20021;-66
2022/07/08 07:59:41;;;;;;;6.35;1.58;;;18.20;99.90;;;;;;5029684;28;20025;-66
2022/07/08 08:02:07;;;;;;;10.85;1.90;;;17.90;99.90;;;;;;5048519;28;20365;-67
2022/07/08 08:04:33;;;;;;;14.93;2.17;;;18.00;99.90;;;;;;5044660;28;20583;-67
2022/07/08 08:06:58;;;;;;;8.18;1.58;;;18.00;99.90;;;;;;5041280;28;20064;-67
2022/07/08 08:09:24;;;;;;;6.38;1.52;;;17.90;99.90;;;;;;5042725;28;20123;-66
2022/07/08 08:11:50;;;;;;;10.98;1.70;;;18.10;99.90;;;;;;5046849;28;20028;-67
2022/07/08 08:14:16;;;;;;;7.53;1.40;;;18.10;99.90;;;;;;5038419;28;20084;-67
2022/07/08 08:16:41;;;;;;;10.50;1.80;;;18.10;99.90;;;;;;5045759;28;20104;-66
2022/07/08 08:19:07;;;;;;;9.70;1.90;;;17.90;99.90;;;;;;5038426;28;20055;-66
2022/07/08 08:21:32;;;;;;;14.73;1.88;;;17.80;99.90;;;;;;5046014;28;20424;-66
2022/07/08 08:23:58;;;;;;;7.25;1.60;;;17.80;99.90;;;;;;5048609;28;20035;-67
2022/07/08 08:26:23;;;;;;;8.73;1.75;;;18.10;99.90;;;;;;5051147;28;20061;-67
2022/07/08 08:28:50;;;;;;;4.40;1.70;;;18.30;99.90;;;;;;5045604;28;20079;-68
2022/07/08 08:31:16;;;;;;;14.70;1.90;;;18.00;99.90;;;;;;5045571;28;20082;-66
2022/07/08 08:33:41;;;;;;;10.82;1.70;;;18.20;99.90;;;;;;5046565;28;20479;-66
2022/07/08 08:36:07;;;;;;;8.93;1.85;;;18.30;99.90;;;;;;5047322;28;20373;-67
2022/07/08 08:38:33;;;;;;;8.38;1.90;;;18.50;99.90;;;;;;5047976;28;20074;-66
2022/07/08 08:40:59;;;;;;;10.15;1.83;;;18.60;99.90;;;;;;5044902;28;20028;-68
2022/07/08 08:43:25;;;;;;;10.48;1.95;;;18.80;99.90;;;;;;5045459;28;20040;-66
2022/07/08 08:45:52;;;;;;;9.27;1.73;;;18.80;99.90;;;;;;5038992;28;20059;-67
2022/07/08 08:48:24;;;;;;;9.40;1.67;;;19.00;99.90;;;;;;5044964;28;20032;-66
2022/07/08 08:50:54;;;;;;;14.50;2.33;;;18.80;99.90;;;;;;5037455;28;20111;-67
2022/07/08 08:53:43;;;;;;;8.40;1.85;;;18.60;99.90;;;;;;5042601;28;20107;-67
2022/07/08 08:56:10;;;;;;;7.80;1.50;;;18.70;99.90;;;;;;5049475;28;20033;-67
2022/07/08 08:58:40;;;;;;;7.80;1.67;;;18.80;99.90;;;;;;5040835;28;20489;-67
2022/07/08 09:01:07;;;;;;;6.05;1.48;;;18.90;99.90;;;;;;5049755;28;20059;-68
2022/07/08 09:03:33;;;;;;;9.20;1.70;;;19.10;99.90;;;;;;5040298;28;20073;-67
2022/07/08 09:05:59;;;;;;;10.43;1.90;;;19.30;99.90;;;;;;5043359;28;20052;-67
2022/07/08 09:08:24;;;;;;;12.85;1.67;;;19.30;99.90;;;;;;5039943;28;20094;-67
2022/07/08 09:10:53;;;;;;;10.18;1.55;;;19.10;99.90;;;;;;5058765;28;20017;-67
2022/07/08 09:13:23;;;;;;;9.32;1.95;;;19.00;99.90;;;;;;5042853;28;20037;-67
2022/07/08 09:15:50;;;;;;;12.07;2.00;;;19.40;99.90;;;;;;5042713;28;20029;-68
2022/07/08 09:18:21;;;;;;;6.93;2.38;;;19.60;99.90;;;;;;5036368;28;20440;-62
2022/07/08 09:20:49;;;;;;;11.23;2.83;;;19.60;99.90;;;;;;5043914;28;20025;-66
2022/07/08 09:23:24;;;;;;;11.73;1.90;;;19.80;99.90;;;;;;5040441;28;20051;-67
2022/07/08 09:25:52;;;;;;;12.88;2.10;;;20.10;99.90;;;;;;5037255;28;20060;-67
2022/07/08 09:28:38;;;;;;;12.95;2.35;;;19.80;99.90;;;;;;5035321;28;20037;-67
2022/07/08 09:31:08;;;;;;;7.72;1.77;;;19.60;99.90;;;;;;5040313;28;20554;-68
2022/07/08 09:33:35;;;;;;;9.70;1.75;;;19.70;99.90;;;;;;5039117;28;20021;-66
2022/07/08 09:36:02;;;;;;;7.40;1.92;;;19.70;99.90;;;;;;5043596;28;20029;-66
2022/07/08 09:38:30;;;;;;;8.50;1.80;;;19.70;99.90;;;;;;5042777;28;20360;-66
2022/07/08 09:40:57;;;;;;;11.40;1.88;;;19.70;99.90;;;;;;5040893;28;20041;-67
2022/07/08 09:43:24;;;;;;;6.45;1.27;;;19.70;99.90;;;;;;5045100;28;20523;-67
2022/07/08 09:45:50;;;;;;;7.63;1.83;;;20.00;99.90;;;;;;5046097;28;20116;-67
2022/07/08 09:48:16;;;;;;;6.85;1.60;;;19.90;99.90;;;;;;5038348;28;20111;-67
2022/07/08 09:50:46;;;;;;;7.32;1.60;;;20.20;99.90;;;;;;5037762;28;20021;-67
2022/07/08 09:53:19;;;;;;;9.95;1.70;;;20.40;99.90;;;;;;5044978;28;20315;-67
2022/07/08 09:55:49;;;;;;;9.88;1.73;;;20.50;99.90;;;;;;5042538;28;20449;-67
2022/07/08 09:58:15;;;;;;;6.07;1.75;;;20.50;99.90;;;;;;5039326;28;20033;-67
2022/07/08 10:00:42;;;;;;;5.55;1.80;;;20.50;99.90;;;;;;5034337;28;20055;-66
2022/07/08 10:03:08;;;;;;;8.52;1.88;;;20.60;99.90;;;;;;5043973;28;20017;-67
2022/07/08 10:05:34;;;;;;;5.15;1.55;;;20.50;99.90;;;;;;5039531;28;20022;-66
2022/07/08 10:08:00;;;;;;;10.93;1.98;;;20.40;99.90;;;;;;5040018;28;20143;-66
2022/07/08 10:10:27;;;;;;;8.77;1.67;;;20.00;99.90;;;;;;5037129;28;20032;-66
2022/07/08 10:12:57;;;;;;;11.02;2.15;;;19.90;99.90;;;;;;5039370;28;20037;-67
2022/07/08 10:15:27;;;;;;;9.55;2.05;;;20.20;99.90;;;;;;5042993;28;20025;-66
2022/07/08 10:17:54;;;;;;;8.75;2.00;;;20.20;99.90;;;;;;5041528;28;20021;-66
2022/07/08 10:20:23;;;;;;;8.15;2.15;;;19.90;99.90;;;;;;5042266;28;20029;-66
2022/07/08 10:22:55;;;;;;;10.45;1.88;;;20.20;99.90;;;;;;5035303;28;20033;-67
2022/07/08 10:25:21;;;;;;;7.80;1.88;;;20.40;99.90;;;;;;5042092;28;20032;-66
2022/07/08 10:27:50;;;;;;;9.82;1.90;;;20.20;99.90;;;;;;5034103;28;20653;-65
2022/07/08 10:30:18;;;;;;;9.20;2.03;;;20.40;99.90;;;;;;5036158;28;20032;-66
2022/07/08 10:32:48;;;;;;;9.38;2.33;;;20.30;99.90;;;;;;5031745;28;20049;-66
2022/07/08 10:35:21;;;;;;;9.85;1.95;;;20.50;99.90;;;;;;5034170;28;20547;-66
2022/07/08 10:37:47;;;;;;;9.77;1.83;;;20.50;99.90;;;;;;5038436;28;20120;-67
2022/07/08 10:40:33;;;;;;;12.60;2.15;;;21.00;99.90;;;;;;5042267;28;20029;-66
2022/07/08 10:43:06;;;;;;;6.30;1.58;;;20.90;99.90;;;;;;5039210;28;20040;-66
2022/07/08 10:46:11;;;;;;;7.47;1.60;;;20.80;99.90;;;;;;5041383;28;20090;-67
2022/07/08 10:48:39;;;;;;;9.85;2.00;;;20.90;99.90;;;;;;5051849;28;20041;-65
2022/07/08 10:51:05;;;;;;;9.82;2.15;;;20.80;99.90;;;;;;5038979;28;20027;-66
2022/07/08 10:53:46;;;;;;;8.02;2.20;;;21.00;99.90;;;;;;5039543;28;20033;-66
2022/07/08 10:56:13;;;;;;;7.15;1.58;;;21.20;99.90;;;;;;5043518;28;20021;-66
2022/07/08 10:59:18;;;;;;;10.23;1.73;;;21.40;99.90;;;;;;5042998;28;20083;-66
2022/07/08 11:02:03;;;;;;;6.95;1.88;;;21.50;99.90;;;;;;5042622;28;20017;-66
2022/07/08 11:04:34;;;;;;;6.32;1.83;;;21.70;99.90;;;;;;5040459;28;20504;-66
2022/07/08 11:07:20;;;;;;;11.10;1.77;;;21.60;99.90;;;;;;5043103;28;20203;-66
2022/07/08 11:09:56;;;;;;;5.70;1.63;;;21.70;99.90;;;;;;5038022;28;20115;-66
2022/07/08 11:12:30;;;;;;;10.70;2.00;;;21.50;99.90;;;;;;5043291;28;20051;-67
2022/07/08 11:14:58;;;;;;;9.10;1.98;;;21.60;99.90;;;;;;5038465;28;20025;-66
2022/07/08 11:17:29;;;;;;;8.80;1.90;;;21.80;99.90;;;;;;5038844;28;20025;-66
2022/07/08 11:19:57;;;;;;;8.80;1.90;;;22.00;99.90;;;;;;5037987;28;20045;-66
2022/07/08 11:22:26;;;;;;;9.25;2.20;;;22.10;99.90;;;;;;5042795;28;20380;-66
2022/07/08 11:24:53;;;;;;;6.47;1.85;;;21.70;99.90;;;;;;5044082;28;20020;-66
2022/07/08 11:27:24;;;;;;;6.05;1.77;;;21.60;99.90;;;;;;5054566;28;20036;-67
2022/07/08 11:29:52;;;;;;;10.52;1.95;;;21.20;99.90;;;;;;5037449;28;20021;-66
2022/07/08 11:32:19;;;;;;;7.07;1.75;;;21.20;99.90;;;;;;5041468;28;20040;-66
2022/07/08 11:34:46;;;;;;;7.05;1.60;;;21.30;99.90;;;;;;5044569;28;20021;-66
2022/07/08 11:37:12;;;;;;;9.20;2.08;;;21.30;99.90;;;;;;5044745;28;20021;-67
2022/07/08 11:39:38;;;;;;;7.65;1.50;;;21.30;99.90;;;;;;5040769;28;20036;-67
2022/07/08 11:42:04;;;;;;;10.90;1.92;;;21.60;99.90;;;;;;5036441;28;20033;-66
2022/07/08 11:44:30;;;;;;;5.05;1.77;;;21.70;99.90;;;;;;5045310;28;20024;-66
2022/07/08 11:46:56;;;;;;;14.52;2.33;;;21.50;99.90;;;;;;5047677;28;20036;-65
2022/07/08 11:49:22;;;;;;;8.15;2.00;;;21.00;99.90;;;;;;5042754;28;20411;-66
2022/07/08 11:51:49;;;;;;;9.20;2.08;;;21.40;99.90;;;;;;5043534;28;20032;-66
2022/07/08 11:54:16;;;;;;;7.70;3.20;;;21.40;99.90;;;;;;5047728;28;20040;-68
2022/07/08 11:56:42;;;;;;;17.98;11.32;;;21.80;99.90;;;;;;5042639;28;20066;-66
2022/07/08 11:59:08;;;;;;;7.18;1.80;;;21.90;99.90;;;;;;5047171;28;20020;-67
2022/07/08 12:01:35;;;;;;;7.25;1.83;;;22.40;99.90;;;;;;5048342;28;20592;-66
2022/07/08 12:04:06;;;;;;;9.60;2.08;;;22.50;99.90;;;;;;5044932;28;20475;-66
2022/07/08 12:06:33;;;;;;;8.27;1.45;;;22.70;99.90;;;;;;5041984;28;20028;-67
2022/07/08 12:09:08;;;;;;;7.55;1.90;;;22.90;99.90;;;;;;5045359;28;20024;-67
2022/07/08 12:11:39;;;;;;;6.32;1.88;;;22.70;99.90;;;;;;5056148;28;20478;-67
2022/07/08 12:14:08;;;;;;;6.85;1.50;;;22.70;99.90;;;;;;5043075;28;20028;-67
2022/07/08 12:16:35;;;;;;;5.60;1.42;;;22.70;99.90;;;;;;5043968;28;20060;-67
2022/07/08 12:19:02;;;;;;;5.65;1.50;;;22.70;99.90;;;;;;5043581;28;21211;-67
2022/07/08 12:21:28;;;;;;;45.78;31.30;;;22.60;99.90;;;;;;5041450;28;20025;-63
2022/07/08 12:24:04;;;;;;;8.77;5.05;;;22.80;99.90;;;;;;5037640;28;20166;-65
2022/07/08 12:26:30;;;;;;;8.80;2.45;;;22.90;99.90;;;;;;5046930;28;20024;-65
2022/07/08 12:28:56;;;;;;;8.15;1.92;;;22.50;99.90;;;;;;5042602;28;20022;-66
2022/07/08 12:31:41;;;;;;;6.88;2.05;;;22.70;99.90;;;;;;5047668;28;20039;-65
2022/07/08 12:34:08;;;;;;;6.55;1.92;;;22.50;99.90;;;;;;5041485;28;20107;-65
2022/07/08 12:36:34;;;;;;;8.68;2.53;;;22.30;99.90;;;;;;5040657;28;20467;-65
2022/07/08 12:39:15;;;;;;;7.22;2.03;;;22.30;99.90;;;;;;5040801;28;20018;-66
2022/07/08 12:41:42;;;;;;;11.57;2.10;;;22.40;99.90;;;;;;5043006;28;20032;-65
2022/07/08 12:44:26;;;;;;;10.85;2.13;;;22.50;99.90;;;;;;5043480;28;20060;-65
2022/07/08 12:46:52;;;;;;;8.20;2.65;;;22.80;99.90;;;;;;5044374;28;20180;-66
2022/07/08 12:49:25;;;;;;;7.72;2.05;;;22.40;99.90;;;;;;5047241;28;20482;-65